OAW581 LFML-LSZH
Flight info
| Callsign | OAW581 |
|---|---|
| Flight time | 0h 59m |
| Altitude | 36000 |
| Route | ETREK6N ETREK DCT LUXAN DCT LTP DCT SOPLO DCT OMASI DCT KINNI DCT SOSAL DCT KORED N871 BERSU BERSU2G |
| Aircraft | E190/M-SDE3GILORVW/S |
Departure
| Time | 2026-05-06 19:45 |
|---|---|
| Airport | Marseille Provence Airport (LFML) |
Arrival
| Time | 2026-05-06 20:44 |
|---|---|
| Airport | Zürich Airport (LSZH) |
| Time | Latitude | Longitude | Altitude | Speed | Heading |
|---|---|---|---|---|---|
| 2026-05-06 19:10 | 43.44156 | 5.21964 | 36 ft | 0 kts | 30° |
| 2026-05-06 19:32 | 43.44137 | 5.21946 | 36 ft | 4 kts | 43° |
| 2026-05-06 19:32 | 43.44119 | 5.21919 | 36 ft | 4 kts | 62° |
| 2026-05-06 19:32 | 43.44110 | 5.21885 | 36 ft | 4 kts | 93° |
| 2026-05-06 19:33 | 43.44115 | 5.21861 | 36 ft | 0 kts | 134° |
| 2026-05-06 19:36 | 43.44113 | 5.21864 | 36 ft | 3 kts | 134° |
| 2026-05-06 19:36 | 43.44083 | 5.21907 | 36 ft | 8 kts | 134° |
| 2026-05-06 19:36 | 43.44037 | 5.21971 | 36 ft | 11 kts | 140° |
| 2026-05-06 19:36 | 43.43970 | 5.21949 | 35 ft | 12 kts | 223° |
| 2026-05-06 19:37 | 43.43901 | 5.21872 | 36 ft | 11 kts | 197° |
| 2026-05-06 19:37 | 43.43833 | 5.21914 | 36 ft | 13 kts | 131° |
| 2026-05-06 19:37 | 43.43764 | 5.22009 | 36 ft | 15 kts | 141° |
| 2026-05-06 19:37 | 43.43671 | 5.22085 | 36 ft | 17 kts | 149° |
| 2026-05-06 19:38 | 43.43562 | 5.22173 | 36 ft | 20 kts | 150° |
| 2026-05-06 19:38 | 43.43436 | 5.22270 | 36 ft | 22 kts | 151° |
| 2026-05-06 19:38 | 43.43306 | 5.22363 | 36 ft | 21 kts | 133° |
| 2026-05-06 19:38 | 43.43203 | 5.22508 | 36 ft | 14 kts | 140° |
| 2026-05-06 19:39 | 43.43136 | 5.22606 | 36 ft | 15 kts | 135° |
| 2026-05-06 19:39 | 43.43055 | 5.22721 | 36 ft | 18 kts | 133° |
| 2026-05-06 19:39 | 43.42968 | 5.22848 | 36 ft | 13 kts | 133° |
| 2026-05-06 19:39 | 43.42880 | 5.22861 | 35 ft | 13 kts | 212° |
| 2026-05-06 19:40 | 43.42862 | 5.22841 | 34 ft | 0 kts | 220° |
| 2026-05-06 19:43 | 43.42856 | 5.22834 | 33 ft | 5 kts | 220° |
| 2026-05-06 19:43 | 43.42818 | 5.22770 | 34 ft | 12 kts | 236° |
| 2026-05-06 19:44 | 43.42840 | 5.22689 | 33 ft | 0 kts | 314° |
| 2026-05-06 19:44 | 43.42890 | 5.22616 | 34 ft | 38 kts | 313° |
| 2026-05-06 19:44 | 43.43235 | 5.22126 | 36 ft | 103 kts | 315° |
| 2026-05-06 19:44 | 43.43860 | 5.21218 | 42 ft | 157 kts | 312° |
| 2026-05-06 19:45 | 43.44718 | 5.20059 | 319 ft | 190 kts | 313° |
| 2026-05-06 19:45 | 43.45691 | 5.18645 | 943 ft | 198 kts | 310° |
| 2026-05-06 19:45 | 43.46606 | 5.17322 | 1898 ft | 186 kts | 310° |
| 2026-05-06 19:45 | 43.47519 | 5.16002 | 2518 ft | 199 kts | 310° |
| 2026-05-06 19:46 | 43.48491 | 5.14605 | 3093 ft | 209 kts | 311° |
| 2026-05-06 19:46 | 43.49558 | 5.13089 | 3492 ft | 230 kts | 313° |
| 2026-05-06 19:46 | 43.50681 | 5.11509 | 4372 ft | 231 kts | 313° |
| 2026-05-06 19:46 | 43.51804 | 5.09916 | 5241 ft | 234 kts | 313° |
| 2026-05-06 19:47 | 43.52937 | 5.08293 | 5934 ft | 241 kts | 313° |
| 2026-05-06 19:47 | 43.54125 | 5.06595 | 6697 ft | 244 kts | 312° |
| 2026-05-06 19:47 | 43.55266 | 5.04944 | 7415 ft | 246 kts | 312° |
| 2026-05-06 19:47 | 43.56442 | 5.03230 | 8136 ft | 247 kts | 312° |
| 2026-05-06 19:48 | 43.57518 | 5.01726 | 8761 ft | 249 kts | 312° |
| 2026-05-06 19:48 | 43.58729 | 5.00012 | 9516 ft | 251 kts | 312° |
| 2026-05-06 19:48 | 43.59959 | 4.98273 | 10258 ft | 253 kts | 311° |
| 2026-05-06 19:48 | 43.61187 | 4.96533 | 10934 ft | 255 kts | 311° |
| 2026-05-06 19:49 | 43.62436 | 4.94771 | 11619 ft | 257 kts | 311° |
| 2026-05-06 19:49 | 43.63699 | 4.93006 | 12290 ft | 259 kts | 310° |
| 2026-05-06 19:49 | 43.64794 | 4.91429 | 12883 ft | 261 kts | 310° |
| 2026-05-06 19:49 | 43.66082 | 4.89641 | 13557 ft | 265 kts | 316° |
| 2026-05-06 19:50 | 43.67660 | 4.88255 | 14168 ft | 272 kts | 327° |
| 2026-05-06 19:50 | 43.69251 | 4.87201 | 14682 ft | 277 kts | 331° |
| 2026-05-06 19:50 | 43.71048 | 4.86148 | 15286 ft | 281 kts | 333° |
| 2026-05-06 19:50 | 43.72889 | 4.85179 | 15886 ft | 286 kts | 337° |
| 2026-05-06 19:51 | 43.74813 | 4.84383 | 16458 ft | 291 kts | 339° |
| 2026-05-06 19:51 | 43.75966 | 4.83922 | 16806 ft | 293 kts | 339° |
| 2026-05-06 19:51 | 43.77940 | 4.83147 | 17426 ft | 296 kts | 339° |
| 2026-05-06 19:51 | 43.79926 | 4.82368 | 18033 ft | 299 kts | 339° |
| 2026-05-06 19:52 | 43.81943 | 4.81575 | 18599 ft | 302 kts | 339° |
| 2026-05-06 19:52 | 43.83944 | 4.80790 | 19144 ft | 304 kts | 339° |
| 2026-05-06 19:52 | 43.85988 | 4.79986 | 19704 ft | 307 kts | 339° |
| 2026-05-06 19:52 | 43.86959 | 4.79603 | 19969 ft | 308 kts | 339° |
| 2026-05-06 19:53 | 43.88648 | 4.78937 | 20443 ft | 310 kts | 339° |
| 2026-05-06 19:53 | 43.90600 | 4.78168 | 20928 ft | 312 kts | 339° |
| 2026-05-06 19:53 | 43.92701 | 4.77339 | 21449 ft | 315 kts | 339° |
| 2026-05-06 19:53 | 43.94817 | 4.76503 | 21971 ft | 318 kts | 339° |
| 2026-05-06 19:54 | 43.96947 | 4.75636 | 22478 ft | 320 kts | 338° |
| 2026-05-06 19:54 | 43.99102 | 4.74797 | 22993 ft | 324 kts | 341° |
| 2026-05-06 19:54 | 44.01311 | 4.74099 | 23503 ft | 327 kts | 341° |
| 2026-05-06 19:54 | 44.03057 | 4.73555 | 23838 ft | 330 kts | 342° |
| 2026-05-06 19:55 | 44.04812 | 4.73018 | 24168 ft | 332 kts | 342° |
| 2026-05-06 19:55 | 44.07094 | 4.72317 | 24488 ft | 339 kts | 342° |
| 2026-05-06 19:55 | 44.09453 | 4.71587 | 24493 ft | 355 kts | 342° |
| 2026-05-06 19:55 | 44.11923 | 4.70830 | 24533 ft | 370 kts | 342° |
| 2026-05-06 19:56 | 44.14483 | 4.70044 | 24594 ft | 383 kts | 342° |
| 2026-05-06 19:56 | 44.16234 | 4.69507 | 24631 ft | 392 kts | 343° |
| 2026-05-06 19:56 | 44.19496 | 4.68502 | 24735 ft | 403 kts | 343° |
| 2026-05-06 19:56 | 44.22245 | 4.67657 | 25082 ft | 405 kts | 342° |
| 2026-05-06 19:57 | 44.24210 | 4.67048 | 25307 ft | 407 kts | 342° |
| 2026-05-06 19:57 | 44.26948 | 4.66203 | 25622 ft | 410 kts | 342° |
| 2026-05-06 19:57 | 44.29742 | 4.65336 | 25934 ft | 412 kts | 342° |
| 2026-05-06 19:57 | 44.32085 | 4.64611 | 26182 ft | 414 kts | 342° |
| 2026-05-06 19:58 | 44.34943 | 4.63724 | 26532 ft | 415 kts | 342° |
| 2026-05-06 19:58 | 44.37609 | 4.62897 | 26809 ft | 417 kts | 342° |
| 2026-05-06 19:58 | 44.40114 | 4.62119 | 27055 ft | 419 kts | 342° |
| 2026-05-06 19:58 | 44.42495 | 4.61378 | 27304 ft | 421 kts | 342° |
| 2026-05-06 19:59 | 44.45368 | 4.60485 | 27600 ft | 423 kts | 342° |
| 2026-05-06 19:59 | 44.48083 | 4.59638 | 27877 ft | 425 kts | 342° |
| 2026-05-06 19:59 | 44.50971 | 4.58738 | 28152 ft | 427 kts | 342° |
| 2026-05-06 19:59 | 44.53875 | 4.57829 | 28469 ft | 428 kts | 342° |
| 2026-05-06 20:00 | 44.56791 | 4.56917 | 28763 ft | 429 kts | 343° |
| 2026-05-06 20:00 | 44.58963 | 4.56245 | 28931 ft | 431 kts | 343° |
| 2026-05-06 20:00 | 44.61923 | 4.55320 | 29202 ft | 432 kts | 342° |
| 2026-05-06 20:00 | 44.64887 | 4.54559 | 29514 ft | 436 kts | 350° |
| 2026-05-06 20:01 | 44.67933 | 4.54393 | 29879 ft | 439 kts | 356° |
| 2026-05-06 20:01 | 44.70985 | 4.54602 | 30167 ft | 442 kts | 3° |
| 2026-05-06 20:01 | 44.74034 | 4.55148 | 30427 ft | 442 kts | 3° |
| 2026-05-06 20:01 | 44.76900 | 4.55681 | 30693 ft | 443 kts | 4° |
| 2026-05-06 20:02 | 44.79959 | 4.56275 | 30966 ft | 443 kts | 4° |
| 2026-05-06 20:02 | 44.83010 | 4.56870 | 31248 ft | 443 kts | 4° |
| 2026-05-06 20:02 | 44.86064 | 4.57465 | 31474 ft | 443 kts | 4° |
| 2026-05-06 20:02 | 44.89126 | 4.58063 | 31686 ft | 445 kts | 4° |
| 2026-05-06 20:03 | 44.92197 | 4.58657 | 32032 ft | 443 kts | 4° |
| 2026-05-06 20:03 | 44.94682 | 4.59147 | 32279 ft | 443 kts | 4° |
| 2026-05-06 20:03 | 44.97727 | 4.59741 | 32555 ft | 443 kts | 4° |
| 2026-05-06 20:03 | 45.00785 | 4.60341 | 32831 ft | 443 kts | 4° |
| 2026-05-06 20:04 | 45.03847 | 4.60941 | 33104 ft | 443 kts | 4° |
| 2026-05-06 20:04 | 45.06901 | 4.61541 | 33372 ft | 443 kts | 4° |
| 2026-05-06 20:04 | 45.09960 | 4.62140 | 33655 ft | 444 kts | 4° |
| 2026-05-06 20:04 | 45.13014 | 4.62740 | 33938 ft | 443 kts | 4° |
| 2026-05-06 20:05 | 45.16064 | 4.63427 | 34163 ft | 445 kts | 9° |
| 2026-05-06 20:05 | 45.19019 | 4.64725 | 34342 ft | 450 kts | 20° |
| 2026-05-06 20:05 | 45.21833 | 4.66741 | 34553 ft | 453 kts | 30° |
| 2026-05-06 20:05 | 45.24345 | 4.69355 | 34749 ft | 455 kts | 40° |
| 2026-05-06 20:06 | 45.26561 | 4.72573 | 34947 ft | 457 kts | 50° |
| 2026-05-06 20:06 | 45.28328 | 4.76141 | 35128 ft | 457 kts | 60° |
| 2026-05-06 20:06 | 45.29704 | 4.80194 | 35414 ft | 455 kts | 70° |
| 2026-05-06 20:06 | 45.30593 | 4.84490 | 35630 ft | 453 kts | 80° |
| 2026-05-06 20:07 | 45.31127 | 4.88894 | 35821 ft | 445 kts | 82° |
| 2026-05-06 20:07 | 45.31667 | 4.93122 | 35872 ft | 427 kts | 79° |
| 2026-05-06 20:07 | 45.33285 | 5.01340 | 35949 ft | 438 kts | 72° |
| 2026-05-06 20:08 | 45.35966 | 5.09223 | 35982 ft | 449 kts | 62° |
| 2026-05-06 20:08 | 45.38916 | 5.17118 | 35987 ft | 457 kts | 62° |
| 2026-05-06 20:09 | 45.41832 | 5.24920 | 35959 ft | 453 kts | 62° |
| 2026-05-06 20:09 | 45.44168 | 5.31185 | 35974 ft | 454 kts | 62° |
| 2026-05-06 20:10 | 45.47289 | 5.39524 | 35954 ft | 452 kts | 59° |
| 2026-05-06 20:10 | 45.51135 | 5.46615 | 35955 ft | 454 kts | 44° |
| 2026-05-06 20:11 | 45.55800 | 5.52709 | 35957 ft | 454 kts | 40° |
| 2026-05-06 20:11 | 45.60383 | 5.58559 | 35956 ft | 454 kts | 40° |
| 2026-05-06 20:12 | 45.64967 | 5.64422 | 35975 ft | 453 kts | 41° |
| 2026-05-06 20:12 | 45.69655 | 5.70438 | 35957 ft | 453 kts | 41° |
| 2026-05-06 20:13 | 45.73488 | 5.75362 | 35956 ft | 453 kts | 41° |
| 2026-05-06 20:13 | 45.78185 | 5.81393 | 35957 ft | 453 kts | 41° |
| 2026-05-06 20:14 | 45.83560 | 5.88310 | 35962 ft | 452 kts | 41° |
| 2026-05-06 20:14 | 45.87474 | 5.93360 | 35958 ft | 454 kts | 41° |
| 2026-05-06 20:15 | 45.92178 | 5.99444 | 35965 ft | 455 kts | 41° |
| 2026-05-06 20:15 | 45.96742 | 6.05357 | 35976 ft | 454 kts | 41° |
| 2026-05-06 20:16 | 46.01278 | 6.11252 | 35975 ft | 453 kts | 41° |
| 2026-05-06 20:16 | 46.05939 | 6.17317 | 35959 ft | 452 kts | 41° |
| 2026-05-06 20:17 | 46.10507 | 6.23471 | 35956 ft | 452 kts | 43° |
| 2026-05-06 20:17 | 46.14910 | 6.29697 | 35968 ft | 452 kts | 44° |
| 2026-05-06 20:18 | 46.19361 | 6.36031 | 35970 ft | 452 kts | 44° |
| 2026-05-06 20:18 | 46.23723 | 6.42251 | 35957 ft | 455 kts | 44° |
| 2026-05-06 20:19 | 46.28223 | 6.48685 | 35953 ft | 454 kts | 44° |
| 2026-05-06 20:19 | 46.32717 | 6.55121 | 35945 ft | 454 kts | 44° |
| 2026-05-06 20:20 | 46.37207 | 6.61569 | 35937 ft | 454 kts | 44° |
| 2026-05-06 20:20 | 46.41662 | 6.67981 | 35939 ft | 453 kts | 45° |
| 2026-05-06 20:21 | 46.46135 | 6.74434 | 35937 ft | 453 kts | 45° |
| 2026-05-06 20:21 | 46.50571 | 6.80851 | 35940 ft | 453 kts | 45° |
| 2026-05-06 20:22 | 46.55027 | 6.87334 | 35919 ft | 453 kts | 46° |
| 2026-05-06 20:22 | 46.59131 | 6.94402 | 35946 ft | 459 kts | 51° |
| 2026-05-06 20:23 | 46.63123 | 7.01588 | 35943 ft | 456 kts | 51° |
| 2026-05-06 20:23 | 46.67116 | 7.08803 | 35934 ft | 457 kts | 51° |
| 2026-05-06 20:24 | 46.71098 | 7.16010 | 35945 ft | 457 kts | 51° |
| 2026-05-06 20:24 | 46.75082 | 7.23238 | 35948 ft | 454 kts | 52° |
| 2026-05-06 20:25 | 46.79029 | 7.30418 | 35933 ft | 454 kts | 52° |
| 2026-05-06 20:25 | 46.82963 | 7.37583 | 35924 ft | 458 kts | 52° |
| 2026-05-06 20:26 | 46.86951 | 7.44894 | 35942 ft | 459 kts | 52° |
| 2026-05-06 20:26 | 46.90921 | 7.52192 | 35922 ft | 459 kts | 52° |
| 2026-05-06 20:27 | 46.94887 | 7.59504 | 35937 ft | 456 kts | 52° |
| 2026-05-06 20:27 | 46.98829 | 7.66796 | 35933 ft | 457 kts | 52° |
| 2026-05-06 20:28 | 47.02778 | 7.74098 | 35930 ft | 457 kts | 52° |
| 2026-05-06 20:28 | 47.06719 | 7.81407 | 35927 ft | 457 kts | 52° |
| 2026-05-06 20:29 | 47.08692 | 7.85074 | 35291 ft | 454 kts | 52° |
| 2026-05-06 20:29 | 47.10616 | 7.88657 | 34616 ft | 452 kts | 53° |
| 2026-05-06 20:29 | 47.12691 | 7.92212 | 33969 ft | 454 kts | 45° |
| 2026-05-06 20:29 | 47.15062 | 7.95196 | 33125 ft | 453 kts | 36° |
| 2026-05-06 20:30 | 47.17747 | 7.97600 | 32130 ft | 450 kts | 25° |
| 2026-05-06 20:30 | 47.23668 | 8.00263 | 30299 ft | 442 kts | 5° |
| 2026-05-06 20:30 | 47.26656 | 8.00462 | 29242 ft | 421 kts | 356° |
| 2026-05-06 20:31 | 47.29543 | 8.00219 | 28144 ft | 406 kts | 355° |
| 2026-05-06 20:31 | 47.32322 | 8.00018 | 27081 ft | 395 kts | 358° |
| 2026-05-06 20:31 | 47.35012 | 8.00099 | 26077 ft | 389 kts | 2° |
| 2026-05-06 20:31 | 47.37692 | 8.00308 | 25104 ft | 385 kts | 2° |
| 2026-05-06 20:32 | 47.40349 | 8.00544 | 24156 ft | 379 kts | 3° |
| 2026-05-06 20:32 | 47.42961 | 8.00776 | 23184 ft | 371 kts | 3° |
| 2026-05-06 20:32 | 47.45513 | 8.01001 | 22113 ft | 365 kts | 3° |
| 2026-05-06 20:32 | 47.48034 | 8.01270 | 21069 ft | 360 kts | 8° |
| 2026-05-06 20:33 | 47.50374 | 8.02451 | 20062 ft | 355 kts | 31° |
| 2026-05-06 20:33 | 47.52201 | 8.04830 | 19097 ft | 348 kts | 56° |
| 2026-05-06 20:33 | 47.53217 | 8.07998 | 18172 ft | 339 kts | 81° |
| 2026-05-06 20:33 | 47.53282 | 8.11419 | 17143 ft | 330 kts | 104° |
| 2026-05-06 20:34 | 47.52416 | 8.14465 | 16139 ft | 317 kts | 129° |
| 2026-05-06 20:34 | 47.50810 | 8.16562 | 15156 ft | 304 kts | 156° |
| 2026-05-06 20:34 | 47.48819 | 8.17314 | 14226 ft | 293 kts | 183° |
| 2026-05-06 20:34 | 47.46886 | 8.16600 | 13252 ft | 285 kts | 211° |
| 2026-05-06 20:35 | 47.45479 | 8.14633 | 12251 ft | 278 kts | 239° |
| 2026-05-06 20:35 | 47.44946 | 8.11953 | 11293 ft | 275 kts | 268° |
| 2026-05-06 20:35 | 47.45235 | 8.09159 | 10366 ft | 273 kts | 281° |
| 2026-05-06 20:35 | 47.45728 | 8.06466 | 9393 ft | 270 kts | 283° |
| 2026-05-06 20:36 | 47.46271 | 8.03827 | 8380 ft | 266 kts | 285° |
| 2026-05-06 20:36 | 47.47171 | 8.01455 | 7382 ft | 271 kts | 312° |
| 2026-05-06 20:36 | 47.48803 | 8.00150 | 7090 ft | 276 kts | 344° |
| 2026-05-06 20:36 | 47.50757 | 8.00288 | 7086 ft | 291 kts | 15° |
| 2026-05-06 20:37 | 47.52492 | 8.01856 | 7158 ft | 299 kts | 45° |
| 2026-05-06 20:37 | 47.53618 | 8.04435 | 7168 ft | 302 kts | 64° |
| 2026-05-06 20:37 | 47.54476 | 8.07279 | 6930 ft | 301 kts | 68° |
| 2026-05-06 20:37 | 47.55258 | 8.10101 | 6680 ft | 300 kts | 68° |
| 2026-05-06 20:38 | 47.56024 | 8.12964 | 6415 ft | 300 kts | 69° |
| 2026-05-06 20:38 | 47.56775 | 8.15833 | 6153 ft | 297 kts | 69° |
| 2026-05-06 20:38 | 47.57521 | 8.18674 | 5873 ft | 297 kts | 69° |
| 2026-05-06 20:38 | 47.58256 | 8.21515 | 5579 ft | 295 kts | 69° |
| 2026-05-06 20:39 | 47.58988 | 8.24353 | 5311 ft | 294 kts | 69° |
| 2026-05-06 20:39 | 47.59716 | 8.27189 | 5046 ft | 293 kts | 69° |
| 2026-05-06 20:39 | 47.60427 | 8.29990 | 4723 ft | 286 kts | 69° |
| 2026-05-06 20:39 | 47.61090 | 8.32659 | 4391 ft | 265 kts | 70° |
| 2026-05-06 20:40 | 47.61370 | 8.35324 | 3411 ft | 265 kts | 99° |
| 2026-05-06 20:40 | 47.60620 | 8.37470 | 3722 ft | 221 kts | 139° |
| 2026-05-06 20:40 | 47.59410 | 8.38979 | 4135 ft | 234 kts | 147° |
| 2026-05-06 20:40 | 47.58164 | 8.40365 | 4083 ft | 234 kts | 148° |
| 2026-05-06 20:41 | 47.56890 | 8.41861 | 3880 ft | 234 kts | 144° |
| 2026-05-06 20:41 | 47.55738 | 8.43455 | 3484 ft | 224 kts | 140° |
| 2026-05-06 20:41 | 47.54664 | 8.44970 | 3282 ft | 203 kts | 141° |
| 2026-05-06 20:41 | 47.53654 | 8.46260 | 2974 ft | 180 kts | 146° |
| 2026-05-06 20:42 | 47.52720 | 8.47415 | 2873 ft | 176 kts | 142° |
| 2026-05-06 20:42 | 47.51886 | 8.48618 | 2619 ft | 155 kts | 137° |
| 2026-05-06 20:42 | 47.51145 | 8.49648 | 2314 ft | 139 kts | 143° |
| 2026-05-06 20:42 | 47.50436 | 8.50587 | 2013 ft | 138 kts | 136° |
| 2026-05-06 20:43 | 47.49728 | 8.51534 | 1782 ft | 136 kts | 141° |
| 2026-05-06 20:43 | 47.49045 | 8.52475 | 1628 ft | 134 kts | 139° |
| 2026-05-06 20:43 | 47.48369 | 8.53394 | 1506 ft | 131 kts | 138° |
| 2026-05-06 20:43 | 47.47696 | 8.54314 | 1416 ft | 127 kts | 138° |
| 2026-05-06 20:44 | 47.47127 | 8.55086 | 1409 ft | 98 kts | 137° |
| 2026-05-06 20:44 | 47.46727 | 8.55637 | 1406 ft | 61 kts | 136° |
| 2026-05-06 20:44 | 47.46438 | 8.55932 | 1401 ft | 35 kts | 162° |
| 2026-05-06 20:44 | 47.46269 | 8.55980 | 1397 ft | 21 kts | 194° |
| 2026-05-06 20:45 | 47.46230 | 8.55835 | 1397 ft | 9 kts | 277° |
| 2026-05-06 20:45 | 47.46238 | 8.55735 | 1400 ft | 12 kts | 276° |
| 2026-05-06 20:45 | 47.46249 | 8.55598 | 1396 ft | 8 kts | 276° |
| 2026-05-06 20:45 | 47.46233 | 8.55561 | 1402 ft | 3 kts | 201° |
| 2026-05-06 20:46 | 47.46196 | 8.55553 | 1398 ft | 7 kts | 184° |
| 2026-05-06 20:46 | 47.46171 | 8.55550 | 1403 ft | 1 kts | 184° |
| 2026-05-06 20:46 | 47.46168 | 8.55550 | 1403 ft | 0 kts | 185° |